Time;durP1;ratioP1;P1;durP2;ratioP2;P2;SDS_P1;SDS_P2;PMS_P1;PMS_P2;Temp;Humidity;BMP_temperature;BMP_pressure;BME280_temperature;BME280_humidity;BME280_pressure;Samples;Min_cycle;Max_cycle;Signal;HPM_P1;HPM_P2
2024/03/07 00:00:16;;;;;;;2.10;2.00;;;25.70;1.00;;;;;;2612024;46;20672;-67
2024/03/07 00:02:44;;;;;;;1.80;1.70;;;25.70;1.00;;;;;;2612242;54;20433;-66
2024/03/07 00:05:10;;;;;;;1.80;1.70;;;25.70;1.00;;;;;;2612960;39;20716;-66
2024/03/07 00:07:37;;;;;;;2.20;2.10;;;25.70;1.00;;;;;;2610640;39;21965;-66
2024/03/07 00:10:04;;;;;;;2.63;2.53;;;25.70;1.00;;;;;;2609180;54;20400;-62
2024/03/07 00:12:30;;;;;;;2.00;1.90;;;25.70;1.00;;;;;;2611372;54;20406;-63
2024/03/07 00:14:56;;;;;;;2.10;2.00;;;25.70;1.00;;;;;;2611562;54;20414;-63
2024/03/07 00:17:22;;;;;;;1.70;1.60;;;25.60;1.00;;;;;;2610245;54;20192;-63
2024/03/07 00:19:48;;;;;;;1.73;1.63;;;25.70;1.00;;;;;;2611193;54;20665;-78
2024/03/07 00:22:14;;;;;;;1.90;1.80;;;25.60;1.00;;;;;;2613696;54;20425;-79
2024/03/07 00:24:40;;;;;;;2.17;2.07;;;25.70;1.00;;;;;;2611259;54;20193;-78
2024/03/07 00:27:06;;;;;;;3.27;3.17;;;25.70;1.00;;;;;;2612638;54;20407;-79
2024/03/07 00:29:35;;;;;;;1.90;1.80;;;25.60;1.00;;;;;;2608784;54;20186;-79
2024/03/07 00:32:01;;;;;;;2.00;1.90;;;25.60;1.00;;;;;;2608294;54;20403;-79
2024/03/07 00:34:27;;;;;;;2.30;2.20;;;25.60;1.00;;;;;;2613702;39;20875;-78
2024/03/07 00:36:53;;;;;;;2.03;1.93;;;25.60;1.00;;;;;;2612364;39;20870;-78
2024/03/07 00:39:19;;;;;;;1.80;1.70;;;25.60;1.00;;;;;;2611604;46;20455;-78
2024/03/07 00:41:45;;;;;;;1.90;1.80;;;25.60;1.00;;;;;;2610357;51;20205;-79
2024/03/07 00:44:11;;;;;;;2.40;2.30;;;25.60;1.00;;;;;;2611008;54;20416;-79
2024/03/07 00:46:37;;;;;;;2.20;2.10;;;25.60;1.00;;;;;;2612492;54;20533;-78
2024/03/07 00:49:03;;;;;;;2.20;2.10;;;25.60;1.00;;;;;;2612847;54;20160;-78
2024/03/07 00:51:29;;;;;;;2.10;2.00;;;25.60;1.00;;;;;;2611828;54;20444;-79
2024/03/07 00:53:55;;;;;;;2.00;1.90;;;25.60;1.00;;;;;;2612785;54;20393;-79
2024/03/07 00:56:21;;;;;;;2.00;1.90;;;25.60;1.00;;;;;;2609118;54;20428;-78
2024/03/07 00:58:48;;;;;;;2.10;2.00;;;25.60;1.00;;;;;;2612847;54;20209;-78
2024/03/07 01:01:15;;;;;;;2.00;1.90;;;25.60;1.00;;;;;;2612345;54;20433;-78
2024/03/07 01:03:41;;;;;;;2.10;2.00;;;25.60;1.00;;;;;;2612204;54;20407;-79
2024/03/07 01:06:09;;;;;;;2.00;1.90;;;25.50;1.00;;;;;;2611665;39;20844;-79
2024/03/07 01:08:36;;;;;;;2.10;2.00;;;25.50;1.00;;;;;;2612606;39;20877;-77
2024/03/07 01:11:09;;;;;;;1.90;1.80;;;25.50;1.00;;;;;;2612194;54;20442;-78
2024/03/07 01:13:35;;;;;;;1.97;1.87;;;25.50;1.00;;;;;;2611549;54;20413;-78
2024/03/07 01:16:01;;;;;;;2.00;1.90;;;25.50;1.00;;;;;;2611694;39;20865;-79
2024/03/07 01:18:27;;;;;;;2.10;2.00;;;25.50;1.00;;;;;;2612595;54;20402;-77
2024/03/07 01:20:53;;;;;;;2.00;1.90;;;25.50;1.00;;;;;;2609530;54;20260;-64
2024/03/07 01:23:18;;;;;;;2.10;2.00;;;25.50;1.00;;;;;;2610065;54;20407;-64
2024/03/07 01:25:44;;;;;;;2.10;2.00;;;25.50;1.00;;;;;;2605880;47;20216;-63
2024/03/07 01:28:12;;;;;;;1.90;1.80;;;25.50;1.00;;;;;;2610245;47;20244;-64
2024/03/07 01:30:38;;;;;;;2.10;2.00;;;25.50;1.00;;;;;;2611668;47;20197;-61
2024/03/07 01:33:03;;;;;;;1.90;1.80;;;25.50;1.00;;;;;;2611125;47;20418;-61
2024/03/07 01:35:29;;;;;;;2.10;2.00;;;25.50;1.00;;;;;;2611500;54;20310;-61
2024/03/07 01:37:55;;;;;;;2.20;2.10;;;25.50;1.00;;;;;;2607488;54;20154;-61
2024/03/07 01:40:20;;;;;;;2.20;2.10;;;25.50;1.00;;;;;;2607768;54;20176;-61
2024/03/07 01:42:50;;;;;;;2.20;2.10;;;25.50;1.00;;;;;;2608374;54;20160;-61
2024/03/07 01:45:17;;;;;;;2.10;2.00;;;25.50;1.00;;;;;;2612119;54;20484;-61
2024/03/07 01:47:42;;;;;;;2.90;2.80;;;25.50;1.00;;;;;;2611719;54;20425;-61
2024/03/07 01:50:08;;;;;;;2.10;2.00;;;25.40;1.00;;;;;;2610083;54;20406;-61
2024/03/07 01:52:34;;;;;;;1.90;1.80;;;25.50;1.00;;;;;;2610376;47;20173;-61
2024/03/07 01:55:00;;;;;;;2.00;1.90;;;25.50;1.00;;;;;;2610171;47;20174;-61
2024/03/07 01:57:26;;;;;;;1.93;1.83;;;25.50;1.00;;;;;;2611069;54;20159;-61
2024/03/07 01:59:52;;;;;;;1.70;1.60;;;25.50;1.00;;;;;;2607052;54;20425;-61
2024/03/07 02:02:17;;;;;;;2.10;2.00;;;25.40;1.00;;;;;;2607965;54;20733;-61
2024/03/07 02:04:43;;;;;;;2.03;1.93;;;25.40;1.00;;;;;;2611833;54;20729;-61
2024/03/07 02:07:11;;;;;;;2.13;2.03;;;25.40;1.00;;;;;;2611843;54;20180;-62
2024/03/07 02:09:37;;;;;;;2.20;2.10;;;25.40;1.00;;;;;;2611233;54;20442;-61
2024/03/07 02:12:03;;;;;;;2.40;2.30;;;25.50;1.00;;;;;;2611467;54;20418;-61
2024/03/07 02:14:29;;;;;;;2.00;1.90;;;25.40;1.00;;;;;;2612293;47;20435;-61
2024/03/07 02:16:58;;;;;;;2.10;2.00;;;25.40;1.00;;;;;;2609061;54;20152;-61
2024/03/07 02:19:24;;;;;;;2.20;2.10;;;25.40;1.00;;;;;;2612192;54;20527;-61
2024/03/07 02:21:50;;;;;;;2.10;2.00;;;25.40;1.00;;;;;;2609830;54;21020;-61
2024/03/07 02:24:16;;;;;;;1.90;1.80;;;25.40;1.00;;;;;;2611555;54;20484;-61
2024/03/07 02:26:42;;;;;;;2.10;2.00;;;25.40;1.00;;;;;;2611301;54;20190;-60
2024/03/07 02:29:07;;;;;;;2.00;1.90;;;25.40;1.00;;;;;;2612960;47;20172;-65
2024/03/07 02:31:36;;;;;;;2.00;1.90;;;25.40;1.00;;;;;;2610896;54;20396;-65
2024/03/07 02:34:03;;;;;;;2.20;2.10;;;25.40;1.00;;;;;;2611382;54;20159;-66
2024/03/07 02:36:29;;;;;;;2.20;2.10;;;25.40;1.00;;;;;;2610774;47;20457;-66
2024/03/07 02:38:55;;;;;;;2.50;2.40;;;25.40;1.00;;;;;;2610791;47;20454;-62
2024/03/07 02:41:20;;;;;;;2.33;2.23;;;25.40;1.00;;;;;;2612812;54;20431;-62
2024/03/07 02:43:46;;;;;;;2.10;2.00;;;25.40;1.00;;;;;;2609667;54;20158;-63
2024/03/07 02:46:12;;;;;;;2.27;2.17;;;25.40;1.00;;;;;;2611112;54;20152;-63
2024/03/07 02:48:38;;;;;;;2.10;2.00;;;25.40;1.00;;;;;;2611066;54;20193;-64
2024/03/07 02:51:07;;;;;;;2.23;2.13;;;25.40;1.00;;;;;;2609056;54;20149;-63
2024/03/07 02:53:33;;;;;;;2.03;1.93;;;25.40;1.00;;;;;;2611566;54;20406;-62
2024/03/07 02:55:59;;;;;;;2.30;2.20;;;25.30;1.00;;;;;;2609085;47;20485;-63
2024/03/07 02:58:25;;;;;;;2.10;2.00;;;25.30;1.00;;;;;;2611329;54;20173;-63
2024/03/07 03:01:00;;;;;;;2.10;2.00;;;25.40;1.00;;;;;;2611393;47;20416;-63
2024/03/07 03:03:32;;;;;;;2.23;2.13;;;25.30;1.00;;;;;;2610276;54;20409;-62
2024/03/07 03:05:59;;;;;;;2.00;1.90;;;25.30;1.00;;;;;;2606560;54;20446;-64
2024/03/07 03:08:28;;;;;;;2.23;2.13;;;25.30;1.00;;;;;;2610494;54;20402;-62
2024/03/07 03:10:54;;;;;;;2.17;2.07;;;25.30;1.00;;;;;;2610746;54;20401;-63
2024/03/07 03:13:20;;;;;;;2.20;2.10;;;25.30;1.00;;;;;;2612057;54;20434;-63
2024/03/07 03:15:46;;;;;;;2.00;1.90;;;25.30;1.00;;;;;;2611800;54;20456;-62
2024/03/07 03:18:12;;;;;;;2.10;2.00;;;25.30;1.00;;;;;;2613165;39;20528;-63
2024/03/07 03:20:38;;;;;;;2.20;2.10;;;25.30;1.00;;;;;;2612834;54;20479;-63
2024/03/07 03:23:05;;;;;;;2.20;2.10;;;25.30;1.00;;;;;;2611214;47;20343;-63
2024/03/07 03:25:34;;;;;;;2.40;2.30;;;25.30;1.00;;;;;;2610627;54;20400;-64
2024/03/07 03:28:10;;;;;;;2.30;2.20;;;25.30;1.00;;;;;;2611137;54;20384;-63
2024/03/07 03:30:38;;;;;;;2.40;2.30;;;25.30;1.00;;;;;;2612033;39;20907;-63
2024/03/07 03:33:05;;;;;;;2.50;2.40;;;25.30;1.00;;;;;;2610700;54;20405;-63
2024/03/07 03:35:31;;;;;;;2.60;2.50;;;25.30;1.00;;;;;;2611655;50;20454;-63
2024/03/07 03:37:57;;;;;;;2.30;2.20;;;25.30;1.00;;;;;;2609709;54;20423;-63
2024/03/07 03:40:23;;;;;;;2.57;2.47;;;25.20;1.00;;;;;;2610879;54;20510;-68
2024/03/07 03:42:48;;;;;;;2.50;2.40;;;25.30;1.00;;;;;;2612897;47;20286;-68
2024/03/07 03:45:15;;;;;;;2.40;2.30;;;25.30;1.00;;;;;;2611675;54;20176;-69
2024/03/07 03:47:42;;;;;;;2.10;2.00;;;25.20;1.00;;;;;;2612075;39;20925;-69
2024/03/07 03:50:10;;;;;;;2.00;1.90;;;25.30;1.00;;;;;;2611502;54;20428;-63
2024/03/07 03:52:36;;;;;;;2.00;1.90;;;25.30;1.00;;;;;;2610719;54;20513;-63
2024/03/07 03:55:05;;;;;;;2.50;2.40;;;25.30;1.00;;;;;;2609702;54;20424;-62
2024/03/07 03:57:31;;;;;;;2.40;2.30;;;25.30;1.00;;;;;;2612245;54;20430;-63
2024/03/07 03:59:58;;;;;;;2.17;2.07;;;25.30;1.00;;;;;;2613479;54;20429;-63
2024/03/07 04:02:24;;;;;;;2.40;2.30;;;25.30;1.00;;;;;;2613125;54;20420;-62
2024/03/07 04:04:51;;;;;;;2.50;2.40;;;25.30;1.00;;;;;;2610321;54;20430;-63
2024/03/07 04:07:17;;;;;;;2.50;2.40;;;25.30;1.00;;;;;;2609959;54;20417;-63
2024/03/07 04:09:44;;;;;;;2.40;2.30;;;25.30;1.00;;;;;;2608940;31;20946;-62
2024/03/07 04:12:12;;;;;;;2.43;2.33;;;25.30;1.00;;;;;;2612069;47;20420;-63
2024/03/07 04:14:41;;;;;;;2.40;2.30;;;25.30;1.00;;;;;;2613053;47;20426;-63
2024/03/07 04:17:08;;;;;;;2.30;2.20;;;25.30;1.00;;;;;;2612467;39;20783;-63
2024/03/07 04:19:38;;;;;;;2.20;2.10;;;25.30;1.00;;;;;;2612931;54;20401;-63
2024/03/07 04:22:04;;;;;;;2.50;2.40;;;25.30;1.00;;;;;;2610964;47;20955;-63
2024/03/07 04:24:32;;;;;;;2.30;2.20;;;25.30;1.00;;;;;;2611725;54;20426;-62
2024/03/07 04:27:00;;;;;;;2.47;2.37;;;25.20;1.00;;;;;;2612719;54;20197;-63
2024/03/07 04:29:26;;;;;;;2.40;2.30;;;25.20;1.00;;;;;;2613349;54;20416;-63
2024/03/07 04:31:52;;;;;;;2.20;2.10;;;25.20;1.00;;;;;;2612558;47;20521;-63
2024/03/07 04:34:18;;;;;;;2.20;2.10;;;25.20;1.00;;;;;;2612549;54;20450;-63
2024/03/07 04:36:44;;;;;;;2.20;2.10;;;25.20;1.00;;;;;;2610271;39;20949;-63
2024/03/07 04:39:22;;;;;;;2.53;2.43;;;25.20;1.00;;;;;;2612701;54;20533;-63
2024/03/07 04:41:48;;;;;;;2.60;2.50;;;25.20;1.00;;;;;;2611480;54;20170;-63
2024/03/07 04:44:14;;;;;;;2.30;2.20;;;25.20;1.00;;;;;;2611554;47;20472;-62
2024/03/07 04:46:42;;;;;;;2.67;2.57;;;25.20;1.00;;;;;;2612915;54;20935;-63
2024/03/07 04:49:09;;;;;;;2.50;2.40;;;25.20;1.00;;;;;;2611527;54;20210;-66
2024/03/07 04:51:34;;;;;;;2.40;2.30;;;25.20;1.00;;;;;;2610957;54;20439;-66
2024/03/07 04:54:00;;;;;;;2.20;2.10;;;25.20;1.00;;;;;;2611396;54;20552;-67
2024/03/07 04:56:26;;;;;;;2.20;2.10;;;25.20;1.00;;;;;;2612746;54;20165;-66
2024/03/07 04:58:53;;;;;;;2.23;2.13;;;25.10;1.00;;;;;;2612238;47;20503;-77
2024/03/07 05:01:20;;;;;;;2.20;2.10;;;25.20;1.00;;;;;;2611069;54;20457;-77
2024/03/07 05:03:46;;;;;;;2.17;2.07;;;25.20;1.00;;;;;;2610943;54;20407;-78
2024/03/07 05:06:12;;;;;;;1.80;1.70;;;25.20;1.00;;;;;;2612253;47;20450;-78
2024/03/07 05:08:38;;;;;;;2.00;1.90;;;25.20;1.00;;;;;;2613102;54;20155;-78
2024/03/07 05:11:04;;;;;;;2.00;1.90;;;25.20;1.00;;;;;;2612927;39;20900;-78
2024/03/07 05:13:31;;;;;;;2.20;2.10;;;25.20;1.00;;;;;;2612232;54;20197;-78
2024/03/07 05:15:57;;;;;;;2.40;2.30;;;25.20;1.00;;;;;;2609031;54;20412;-77
2024/03/07 05:18:23;;;;;;;2.70;2.60;;;25.20;1.00;;;;;;2612364;54;20426;-78
2024/03/07 05:20:49;;;;;;;2.37;2.27;;;25.10;1.00;;;;;;2612494;39;20490;-78
2024/03/07 05:23:14;;;;;;;2.10;2.00;;;25.20;1.00;;;;;;2613270;54;20165;-79
2024/03/07 05:25:40;;;;;;;1.90;1.80;;;25.20;1.00;;;;;;2613093;54;20399;-78
2024/03/07 05:28:06;;;;;;;2.20;2.10;;;25.20;1.00;;;;;;2613076;54;20582;-77
2024/03/07 05:30:33;;;;;;;2.10;2.00;;;25.10;1.00;;;;;;2611298;39;20491;-77
2024/03/07 05:33:00;;;;;;;2.40;2.30;;;25.20;1.00;;;;;;2613906;54;20159;-79
2024/03/07 05:35:29;;;;;;;2.10;2.00;;;25.10;1.00;;;;;;2613244;54;20449;-79
2024/03/07 05:37:56;;;;;;;2.00;1.90;;;25.20;1.00;;;;;;2613222;54;20400;-80
2024/03/07 05:40:22;;;;;;;1.90;1.80;;;25.10;1.00;;;;;;2611315;54;21613;-78
2024/03/07 05:42:48;;;;;;;2.00;1.90;;;25.20;1.00;;;;;;2614006;39;20741;-80
2024/03/07 05:45:14;;;;;;;2.10;2.00;;;25.20;1.00;;;;;;2613749;54;20410;-79
2024/03/07 05:47:40;;;;;;;2.00;1.90;;;25.20;1.00;;;;;;2613616;54;20168;-78
2024/03/07 05:50:10;;;;;;;1.90;1.80;;;25.20;1.00;;;;;;2613086;54;20414;-78
2024/03/07 05:52:36;;;;;;;2.20;2.10;;;25.20;1.00;;;;;;2612855;54;20420;-79
2024/03/07 05:55:06;;;;;;;2.40;2.30;;;25.20;1.00;;;;;;2613413;47;21025;-78
2024/03/07 05:57:32;;;;;;;1.97;1.87;;;25.20;1.00;;;;;;2613501;39;20438;-79
2024/03/07 05:59:57;;;;;;;2.40;2.30;;;25.20;1.00;;;;;;2611452;54;20424;-62
2024/03/07 06:02:23;;;;;;;2.40;2.30;;;25.20;1.00;;;;;;2611252;54;20150;-62
2024/03/07 06:04:49;;;;;;;2.17;2.07;;;25.20;1.00;;;;;;2609766;47;20163;-61
2024/03/07 06:07:14;;;;;;;2.10;2.00;;;25.20;1.00;;;;;;2611005;47;20170;-62
2024/03/07 06:09:40;;;;;;;2.00;1.90;;;25.20;1.00;;;;;;2613349;47;20180;-63
2024/03/07 06:12:08;;;;;;;6.80;6.30;;;25.30;1.00;;;;;;2611566;54;20587;-60
2024/03/07 06:14:34;;;;;;;2.00;1.90;;;25.30;1.00;;;;;;2611329;39;20731;-61
2024/03/07 06:17:00;;;;;;;2.30;2.20;;;25.20;1.00;;;;;;2610460;54;20420;-61
2024/03/07 06:19:26;;;;;;;2.30;2.20;;;25.30;1.00;;;;;;2610182;54;20164;-61
2024/03/07 06:21:53;;;;;;;4.50;4.40;;;25.30;1.00;;;;;;2610309;47;20976;-63
2024/03/07 06:24:21;;;;;;;5.37;5.17;;;25.30;1.00;;;;;;2611612;39;20620;-63
2024/03/07 06:26:49;;;;;;;4.00;3.90;;;25.20;1.00;;;;;;2612545;54;20422;-62
2024/03/07 06:29:16;;;;;;;4.10;4.00;;;25.20;1.00;;;;;;2612449;54;20398;-63
2024/03/07 06:31:42;;;;;;;3.30;3.20;;;25.20;1.00;;;;;;2612559;54;20496;-63
2024/03/07 06:34:08;;;;;;;3.90;3.80;;;25.20;1.00;;;;;;2609854;54;20423;-62
2024/03/07 06:36:35;;;;;;;4.87;4.67;;;25.20;1.00;;;;;;2610047;39;20537;-62
2024/03/07 06:39:01;;;;;;;3.37;3.27;;;25.20;1.00;;;;;;2611338;54;20495;-63
2024/03/07 06:41:26;;;;;;;4.20;4.10;;;25.20;1.00;;;;;;2612412;54;20391;-62
2024/03/07 06:43:55;;;;;;;3.70;3.60;;;25.20;1.00;;;;;;2610587;54;20386;-63
2024/03/07 06:46:21;;;;;;;4.87;4.67;;;25.20;1.00;;;;;;2611233;54;20149;-63
2024/03/07 06:48:47;;;;;;;4.30;4.20;;;25.20;1.00;;;;;;2609792;47;20415;-63
2024/03/07 06:51:13;;;;;;;4.30;4.20;;;25.20;1.00;;;;;;2613521;54;20984;-62
2024/03/07 06:53:39;;;;;;;4.60;4.50;;;25.20;1.00;;;;;;2612242;47;20419;-64
2024/03/07 06:56:06;;;;;;;5.03;4.83;;;25.20;1.00;;;;;;2612927;39;20648;-63
2024/03/07 06:58:32;;;;;;;3.90;3.80;;;25.20;1.00;;;;;;2611859;54;21510;-62
2024/03/07 07:01:00;;;;;;;3.87;3.77;;;25.20;1.00;;;;;;2611596;54;20468;-62
2024/03/07 07:03:27;;;;;;;3.77;3.67;;;25.20;1.00;;;;;;2607995;54;20461;-62
2024/03/07 07:05:54;;;;;;;3.40;3.30;;;25.20;1.00;;;;;;2609309;54;20391;-62
2024/03/07 07:08:20;;;;;;;3.23;3.13;;;25.10;1.00;;;;;;2611175;54;20398;-62
2024/03/07 07:10:46;;;;;;;3.00;2.90;;;25.10;1.00;;;;;;2610914;54;20431;-63
2024/03/07 07:13:13;;;;;;;3.10;3.00;;;25.10;1.00;;;;;;2611575;54;20490;-64
2024/03/07 07:15:39;;;;;;;3.30;3.20;;;25.10;1.00;;;;;;2613207;39;20796;-64
2024/03/07 07:18:07;;;;;;;2.90;2.80;;;25.10;1.00;;;;;;2611611;54;20428;-64
2024/03/07 07:20:34;;;;;;;2.80;2.70;;;25.10;1.00;;;;;;2609532;39;21045;-66
2024/03/07 07:23:02;;;;;;;2.70;2.60;;;25.10;1.00;;;;;;2611355;39;20779;-66
2024/03/07 07:25:27;;;;;;;3.20;3.10;;;25.10;1.00;;;;;;2613216;54;20404;-66
2024/03/07 07:27:53;;;;;;;3.30;3.20;;;25.10;1.00;;;;;;2612115;39;20915;-66
2024/03/07 07:30:22;;;;;;;3.53;3.43;;;25.10;1.00;;;;;;2609937;54;20724;-66
2024/03/07 07:32:48;;;;;;;3.17;3.07;;;25.20;1.00;;;;;;2612677;54;20217;-66
2024/03/07 07:35:15;;;;;;;3.30;3.20;;;25.20;1.00;;;;;;2611982;54;21620;-66
2024/03/07 07:37:45;;;;;;;2.97;2.87;;;25.20;1.00;;;;;;2610321;47;21011;-66
2024/03/07 07:40:18;;;;;;;3.20;3.10;;;25.20;1.00;;;;;;2612776;31;20879;-66
2024/03/07 07:42:48;;;;;;;4.10;4.00;;;25.20;1.00;;;;;;2614290;39;20812;-66
2024/03/07 07:45:15;;;;;;;3.40;3.30;;;25.20;1.00;;;;;;2612381;54;20456;-66
2024/03/07 07:47:49;;;;;;;3.40;3.30;;;25.20;1.00;;;;;;2612789;54;20402;-66
2024/03/07 07:50:20;;;;;;;3.30;3.20;;;25.20;1.00;;;;;;2612321;54;20976;-66
2024/03/07 07:52:50;;;;;;;3.40;3.30;;;25.20;1.00;;;;;;2612712;54;20976;-66
2024/03/07 07:55:17;;;;;;;4.20;4.10;;;25.20;1.00;;;;;;2612130;47;20433;-66
2024/03/07 07:57:52;;;;;;;3.33;3.23;;;25.20;1.00;;;;;;2610931;54;20505;-66
2024/03/07 08:00:22;;;;;;;3.30;3.20;;;25.20;1.00;;;;;;2609143;54;20446;-67
2024/03/07 08:03:02;;;;;;;3.10;3.00;;;25.20;1.00;;;;;;2611906;54;20488;-66
2024/03/07 08:05:32;;;;;;;3.30;3.20;;;25.20;1.00;;;;;;2612494;54;20951;-67
2024/03/07 08:08:02;;;;;;;3.30;3.20;;;25.20;1.00;;;;;;2611729;54;20407;-66
2024/03/07 08:10:28;;;;;;;3.50;3.40;;;25.20;1.00;;;;;;2612410;54;21081;-66
2024/03/07 08:12:55;;;;;;;3.10;3.00;;;25.20;1.00;;;;;;2611216;54;20934;-66
2024/03/07 08:15:21;;;;;;;3.40;3.30;;;25.20;1.00;;;;;;2610698;54;20412;-66
2024/03/07 08:17:48;;;;;;;3.27;3.17;;;25.20;1.00;;;;;;2613399;39;20703;-66
2024/03/07 08:20:18;;;;;;;3.00;2.90;;;25.20;1.00;;;;;;2613678;39;20871;-79
2024/03/07 08:22:45;;;;;;;3.20;3.10;;;25.30;1.00;;;;;;2613514;54;20416;-79
2024/03/07 08:25:14;;;;;;;2.70;2.60;;;25.30;1.00;;;;;;2612387;54;20408;-78
2024/03/07 08:27:42;;;;;;;3.33;3.23;;;25.30;1.00;;;;;;2613394;39;20464;-79
2024/03/07 08:30:12;;;;;;;3.83;3.73;;;25.30;1.00;;;;;;2610144;39;20909;-73
2024/03/07 08:32:39;;;;;;;2.80;2.70;;;25.30;1.00;;;;;;2610416;54;20791;-73
2024/03/07 08:35:06;;;;;;;3.00;2.90;;;25.30;1.00;;;;;;2610940;46;20494;-72
2024/03/07 08:37:35;;;;;;;3.90;3.80;;;25.30;1.00;;;;;;2610398;47;20539;-72
2024/03/07 08:40:04;;;;;;;4.10;4.00;;;25.40;1.00;;;;;;2612237;54;20568;-72
2024/03/07 08:42:32;;;;;;;3.80;3.70;;;25.40;1.00;;;;;;2612257;54;20417;-72
2024/03/07 08:44:58;;;;;;;3.80;3.70;;;25.40;1.00;;;;;;2613269;54;20422;-72
2024/03/07 08:47:24;;;;;;;3.20;3.10;;;25.40;1.00;;;;;;2612557;54;20852;-73
2024/03/07 08:49:49;;;;;;;3.93;3.83;;;25.40;1.00;;;;;;2612868;54;20421;-72
2024/03/07 08:52:15;;;;;;;3.30;3.20;;;25.40;1.00;;;;;;2610356;54;21564;-72
2024/03/07 08:54:40;;;;;;;3.30;3.20;;;25.40;1.00;;;;;;2610720;47;20167;-72
2024/03/07 08:57:07;;;;;;;3.00;2.90;;;25.40;1.00;;;;;;2610330;54;20157;-72
2024/03/07 08:59:33;;;;;;;3.60;3.50;;;25.40;1.00;;;;;;2611802;54;20152;-72
2024/03/07 09:02:01;;;;;;;3.40;3.30;;;25.40;1.00;;;;;;2613175;39;20846;-72
2024/03/07 09:04:28;;;;;;;3.70;3.60;;;25.40;1.00;;;;;;2609333;39;20578;-72
2024/03/07 09:06:54;;;;;;;3.30;3.20;;;25.40;1.00;;;;;;2609577;54;20396;-73
2024/03/07 09:09:20;;;;;;;3.00;2.90;;;25.40;1.00;;;;;;2609985;46;20441;-73
2024/03/07 09:11:45;;;;;;;3.53;3.43;;;25.40;1.00;;;;;;2610029;39;20773;-72
2024/03/07 09:14:12;;;;;;;3.27;3.17;;;25.40;1.00;;;;;;2610162;47;20517;-72
2024/03/07 09:16:38;;;;;;;2.70;2.60;;;25.40;1.00;;;;;;2611367;54;20244;-72
2024/03/07 09:19:03;;;;;;;3.50;3.40;;;25.30;1.00;;;;;;2610350;54;20439;-72
2024/03/07 09:21:29;;;;;;;3.30;3.20;;;25.30;1.00;;;;;;2613496;54;20649;-72
2024/03/07 09:23:55;;;;;;;2.80;2.70;;;25.40;1.00;;;;;;2609027;54;20180;-72
2024/03/07 09:26:20;;;;;;;3.60;3.50;;;25.30;1.00;;;;;;2610040;54;20652;-71
2024/03/07 09:28:46;;;;;;;3.60;3.50;;;25.40;1.00;;;;;;2609636;54;20212;-65
2024/03/07 09:31:14;;;;;;;3.57;3.47;;;25.40;1.00;;;;;;2609206;54;20177;-78
2024/03/07 09:33:40;;;;;;;3.37;3.27;;;25.40;1.00;;;;;;2610274;39;20569;-78
2024/03/07 09:36:06;;;;;;;3.00;2.90;;;25.40;1.00;;;;;;2609178;54;20535;-79
2024/03/07 09:38:32;;;;;;;3.40;3.30;;;25.40;1.00;;;;;;2609119;54;20159;-79
2024/03/07 09:40:59;;;;;;;3.47;3.37;;;25.40;1.00;;;;;;2610136;54;21129;-72
2024/03/07 09:43:28;;;;;;;3.50;3.40;;;25.40;1.00;;;;;;2609246;54;20731;-73
2024/03/07 09:45:55;;;;;;;3.30;3.20;;;25.40;1.00;;;;;;2611180;47;20443;-73
2024/03/07 09:48:21;;;;;;;3.00;2.90;;;25.40;1.00;;;;;;2609906;39;20962;-73
2024/03/07 09:50:50;;;;;;;3.80;3.70;;;25.40;1.00;;;;;;2610503;54;20392;-73
2024/03/07 09:53:17;;;;;;;3.80;3.70;;;25.40;1.00;;;;;;2609100;39;20921;-73
2024/03/07 09:55:44;;;;;;;3.50;3.40;;;25.40;1.00;;;;;;2610900;39;20855;-72
2024/03/07 09:58:12;;;;;;;3.53;3.43;;;25.40;1.00;;;;;;2608927;54;20375;-72
2024/03/07 10:00:40;;;;;;;3.10;3.00;;;25.40;1.00;;;;;;2610951;54;20876;-72
2024/03/07 10:03:07;;;;;;;3.57;3.47;;;25.40;1.00;;;;;;2612590;39;20578;-72
2024/03/07 10:05:33;;;;;;;3.60;3.50;;;25.40;1.00;;;;;;2610641;54;20429;-72
2024/03/07 10:08:00;;;;;;;3.60;3.50;;;25.40;1.00;;;;;;2610226;54;20851;-72
2024/03/07 10:10:26;;;;;;;3.80;3.70;;;25.40;1.00;;;;;;2609603;54;20153;-72
2024/03/07 10:12:57;;;;;;;3.70;3.60;;;25.40;1.00;;;;;;2610055;39;20845;-73
2024/03/07 10:15:29;;;;;;;3.53;3.43;;;25.40;1.00;;;;;;2610508;54;20161;-74
2024/03/07 10:17:55;;;;;;;3.20;3.10;;;25.40;1.00;;;;;;2610733;47;20412;-73
2024/03/07 10:20:22;;;;;;;3.40;3.30;;;25.40;1.00;;;;;;2609205;54;21255;-72
2024/03/07 10:22:48;;;;;;;3.97;3.87;;;25.40;1.00;;;;;;2609983;54;20161;-71
2024/03/07 10:25:17;;;;;;;2.80;2.70;;;25.40;1.00;;;;;;2609932;54;20398;-72
2024/03/07 10:27:44;;;;;;;3.20;3.10;;;25.50;1.00;;;;;;2609721;54;20434;-72
2024/03/07 10:30:10;;;;;;;3.37;3.27;;;25.40;1.00;;;;;;2612087;54;20800;-72
2024/03/07 10:32:36;;;;;;;3.50;3.40;;;25.40;1.00;;;;;;2610502;54;20407;-71
2024/03/07 10:35:03;;;;;;;3.40;3.30;;;25.50;1.00;;;;;;2609228;39;20938;-72
2024/03/07 10:37:29;;;;;;;3.20;3.10;;;25.50;1.00;;;;;;2610154;54;20392;-72
2024/03/07 10:39:56;;;;;;;3.20;3.10;;;25.50;1.00;;;;;;2610339;54;20475;-67
2024/03/07 10:42:24;;;;;;;2.90;2.80;;;25.50;1.00;;;;;;2609576;54;21210;-67
2024/03/07 10:44:55;;;;;;;3.37;3.27;;;25.50;1.00;;;;;;2610894;54;20153;-67
2024/03/07 10:47:22;;;;;;;3.17;3.07;;;25.60;1.00;;;;;;2611015;54;20387;-67
2024/03/07 10:50:12;;;;;;;3.50;3.40;;;25.60;1.00;;;;;;2610169;54;20401;-66
2024/03/07 10:52:48;;;;;;;3.23;3.13;;;25.60;1.00;;;;;;2611222;39;20909;-66
2024/03/07 10:55:36;;;;;;;3.90;3.80;;;25.60;1.00;;;;;;2611067;54;20400;-68
2024/03/07 10:58:12;;;;;;;3.57;3.47;;;25.60;1.00;;;;;;2610178;54;20440;-66
2024/03/07 11:00:45;;;;;;;3.17;3.07;;;25.60;1.00;;;;;;2609705;54;20399;-67
2024/03/07 11:03:11;;;;;;;3.80;3.70;;;25.60;1.00;;;;;;2610764;39;20809;-67
2024/03/07 11:05:37;;;;;;;3.40;3.30;;;25.70;1.00;;;;;;2609915;54;20416;-66
2024/03/07 11:08:11;;;;;;;2.80;2.70;;;25.60;1.00;;;;;;2609520;39;20566;-67
2024/03/07 11:10:37;;;;;;;3.67;3.57;;;25.70;1.00;;;;;;2611872;54;20437;-67
2024/03/07 11:13:04;;;;;;;3.30;3.20;;;25.70;1.00;;;;;;2610440;54;20436;-68
2024/03/07 11:15:32;;;;;;;3.10;3.00;;;25.80;1.00;;;;;;2612428;39;20931;-67
2024/03/07 11:17:59;;;;;;;3.50;3.40;;;25.80;1.00;;;;;;2609816;54;20406;-67
2024/03/07 11:20:26;;;;;;;3.40;3.30;;;25.80;1.00;;;;;;2610388;54;20406;-67
2024/03/07 11:22:55;;;;;;;2.90;2.80;;;25.80;1.00;;;;;;2611380;54;20968;-67
2024/03/07 11:25:22;;;;;;;3.20;3.10;;;25.90;1.00;;;;;;2609048;54;20408;-67
2024/03/07 11:28:06;;;;;;;3.90;3.80;;;25.90;1.00;;;;;;2610263;54;20423;-67
2024/03/07 11:30:32;;;;;;;3.90;3.80;;;25.90;1.00;;;;;;2610664;54;21266;-67
2024/03/07 11:33:01;;;;;;;3.00;2.90;;;25.90;1.00;;;;;;2610045;54;20436;-67
2024/03/07 11:35:36;;;;;;;3.80;3.70;;;25.90;1.00;;;;;;2609030;39;20442;-66
2024/03/07 11:38:06;;;;;;;3.60;3.50;;;26.00;1.00;;;;;;2610879;54;21333;-67
2024/03/07 11:40:31;;;;;;;3.40;3.30;;;26.00;1.00;;;;;;2612087;54;20403;-66
2024/03/07 11:42:59;;;;;;;3.30;3.20;;;26.00;1.00;;;;;;2610395;54;20424;-67
2024/03/07 11:45:26;;;;;;;3.60;3.50;;;26.00;1.00;;;;;;2608144;54;20168;-65
2024/03/07 11:50:47;;;;;;;3.80;3.70;;;26.10;1.00;;;;;;2609687;54;20437;-63
2024/03/07 11:53:13;;;;;;;3.60;3.50;;;26.10;1.00;;;;;;2610574;54;20529;-63
2024/03/07 11:55:46;;;;;;;3.73;3.63;;;26.10;1.00;;;;;;2608669;47;20181;-64
2024/03/07 11:58:16;;;;;;;3.50;3.40;;;26.10;1.00;;;;;;2608604;47;20428;-63
2024/03/07 12:00:46;;;;;;;3.13;3.03;;;26.20;1.00;;;;;;2608533;54;20422;-66
2024/03/07 12:03:18;;;;;;;4.17;4.03;;;26.20;1.00;;;;;;2609357;54;20399;-67
2024/03/07 12:05:44;;;;;;;3.30;3.20;;;26.20;1.00;;;;;;2607112;39;20839;-66
2024/03/07 12:08:11;;;;;;;3.87;3.77;;;26.20;1.00;;;;;;2608877;47;20456;-67
2024/03/07 12:10:43;;;;;;;2.87;2.77;;;26.20;1.00;;;;;;2611080;54;20406;-67
2024/03/07 12:13:11;;;;;;;3.53;3.43;;;26.30;1.00;;;;;;2611374;54;20395;-66
2024/03/07 12:15:38;;;;;;;3.90;3.80;;;26.30;1.00;;;;;;2612510;51;20422;-67
2024/03/07 12:18:14;;;;;;;3.50;3.40;;;26.30;1.00;;;;;;2611532;54;20412;-67
2024/03/07 12:20:42;;;;;;;3.17;3.07;;;26.30;1.00;;;;;;2610336;54;20419;-68
2024/03/07 12:23:08;;;;;;;3.23;3.13;;;26.30;1.00;;;;;;2611246;54;20414;-66
2024/03/07 12:25:42;;;;;;;2.93;2.83;;;26.30;1.00;;;;;;2609743;39;20800;-67
2024/03/07 12:28:16;;;;;;;2.93;2.83;;;26.40;1.00;;;;;;2609605;54;20395;-66
2024/03/07 12:30:56;;;;;;;3.17;3.07;;;26.30;1.00;;;;;;2609817;54;20408;-66
2024/03/07 12:33:25;;;;;;;3.30;3.20;;;26.30;1.00;;;;;;2612237;54;20410;-67
2024/03/07 12:35:52;;;;;;;3.00;2.90;;;26.40;1.00;;;;;;2612382;54;21001;-67
2024/03/07 12:38:23;;;;;;;3.20;3.10;;;26.40;1.00;;;;;;2612281;54;20416;-66
2024/03/07 12:41:14;;;;;;;3.20;3.10;;;26.40;1.00;;;;;;2613754;54;20407;-65
2024/03/07 12:43:42;;;;;;;3.30;3.20;;;26.30;1.00;;;;;;2613972;54;20986;-67
2024/03/07 12:46:11;;;;;;;3.50;3.40;;;26.40;1.00;;;;;;2613493;39;20737;-66
2024/03/07 12:48:38;;;;;;;3.40;3.30;;;26.40;1.00;;;;;;2612714;39;20796;-66
2024/03/07 12:51:05;;;;;;;3.27;3.17;;;26.30;1.00;;;;;;2612034;54;20511;-66
2024/03/07 12:53:31;;;;;;;3.10;3.00;;;26.40;1.00;;;;;;2612834;54;20993;-66
2024/03/07 12:55:57;;;;;;;2.90;2.80;;;26.40;1.00;;;;;;2607913;39;20663;-66
2024/03/07 12:58:25;;;;;;;3.20;3.10;;;26.30;1.00;;;;;;2608776;54;20396;-67
2024/03/07 13:00:57;;;;;;;3.40;3.30;;;26.30;1.00;;;;;;2609748;54;20160;-71